createdAt,value
2023-02-16T00:00:01.020Z,96870.56
2023-02-16T00:05:22.188Z,96862.16
2023-02-16T00:10:25.328Z,96861.66
2023-02-16T00:15:26.839Z,96851.19
2023-02-16T00:20:31.754Z,96852.28
2023-02-16T00:25:33.306Z,96847.22
2023-02-16T00:30:34.854Z,96845.31
2023-02-16T00:35:36.460Z,96845.31
2023-02-16T00:40:38.520Z,96850.72
2023-02-16T00:45:41.215Z,96845.63
2023-02-16T00:50:42.971Z,96845.63
2023-02-16T00:55:44.791Z,96846.13
2023-02-16T01:00:50.921Z,96835.66
2023-02-16T01:06:15.366Z,96834.84
2023-02-16T01:11:17.344Z,96833.25
2023-02-16T01:16:24.899Z,96834.25
2023-02-16T01:21:26.402Z,96832.97
2023-02-16T01:26:28.656Z,96824.38
2023-02-16T01:31:30.265Z,96825.81
2023-02-16T01:36:35.250Z,96823.91
2023-02-16T01:41:59.411Z,96828.00
2023-02-16T01:47:12.836Z,96822.13
2023-02-16T01:52:38.599Z,96819.41
2023-02-16T01:57:48.255Z,96817.53
2023-02-16T02:03:16.294Z,96800.28
2023-02-16T02:08:31.257Z,96803.25
2023-02-16T02:13:41.066Z,96795.81
2023-02-16T02:18:44.935Z,96796.09
2023-02-16T02:24:11.701Z,96791.81
2023-02-16T02:29:48.947Z,96793.53
2023-02-16T02:35:17.998Z,96787.97
2023-02-16T02:40:47.953Z,96786.50
2023-02-16T02:46:14.464Z,96775.41
2023-02-16T02:51:33.563Z,96780.81
2023-02-16T02:56:57.785Z,96775.41
2023-02-16T03:02:02.484Z,96773.53
2023-02-16T03:07:06.581Z,96772.91
2023-02-16T03:12:28.820Z,96766.44
2023-02-16T03:17:53.982Z,96766.44
2023-02-16T03:23:15.328Z,96765.63
2023-02-16T03:28:38.149Z,96769.41
2023-02-16T03:33:41.040Z,96773.53
2023-02-16T03:38:42.680Z,96777.00
2023-02-16T03:43:44.341Z,96782.38
2023-02-16T03:48:45.828Z,96787.19
2023-02-16T03:53:47.409Z,96779.88
2023-02-16T03:58:48.921Z,96785.28
2023-02-16T04:03:50.578Z,96793.66
2023-02-16T04:08:52.166Z,96790.16
2023-02-16T04:13:53.679Z,96776.22
2023-02-16T04:18:55.311Z,96786.19
2023-02-16T04:23:56.847Z,96776.53
2023-02-16T04:28:58.394Z,96772.25
2023-02-16T04:33:59.929Z,96772.25
2023-02-16T04:39:01.640Z,96769.25
2023-02-16T04:44:03.363Z,96761.97
2023-02-16T04:49:04.907Z,96761.66
2023-02-16T04:54:07.459Z,96772.59
2023-02-16T04:59:09.004Z,96762.13
2023-02-16T05:04:10.708Z,96764.03
2023-02-16T05:09:12.453Z,96772.06
2023-02-16T05:14:38.676Z,96768.88
2023-02-16T05:19:41.065Z,96767.75
2023-02-16T05:24:43.327Z,96772.25
2023-02-16T05:29:44.878Z,96768.25
2023-02-16T05:34:46.454Z,96771.28
2023-02-16T05:39:48.664Z,96771.44
2023-02-16T05:44:50.254Z,96765.56
2023-02-16T05:49:51.776Z,96767.28
2023-02-16T05:54:53.404Z,96795.38
2023-02-16T05:59:54.908Z,96816.03
2023-02-16T06:04:56.404Z,96817.38
2023-02-16T06:09:57.961Z,96821.25
2023-02-16T06:14:59.476Z,96827.84
2023-02-16T06:20:00.939Z,96828.44
2023-02-16T06:25:03.283Z,96826.25
2023-02-16T06:30:06.154Z,96827.06
2023-02-16T06:35:07.968Z,96818.78
2023-02-16T06:40:10.449Z,96827.84
2023-02-16T06:45:12.201Z,96831.81
2023-02-16T06:50:14.503Z,96835.91
2023-02-16T06:55:16.163Z,96828.63
2023-02-16T07:00:18.132Z,96838.28
2023-02-16T07:05:19.658Z,96830.44
2023-02-16T07:10:21.262Z,96835.00
2023-02-16T07:15:23.229Z,96837.09
2023-02-16T07:20:24.738Z,96834.69
2023-02-16T07:25:26.313Z,96844.06
2023-02-16T07:30:27.933Z,96847.44
2023-02-16T07:35:29.668Z,96848.72
2023-02-16T07:40:31.729Z,96841.94
2023-02-16T07:45:34.016Z,96842.03
2023-02-16T07:50:36.739Z,96856.16
2023-02-16T07:55:45.603Z,96860.94
2023-02-16T08:00:47.127Z,96853.06
2023-02-16T08:05:48.860Z,96853.25
2023-02-16T08:10:50.447Z,96845.84
2023-02-16T08:15:51.985Z,96855.22
2023-02-16T08:21:03.843Z,96848.91
2023-02-16T08:26:13.832Z,96859.44
2023-02-16T08:31:30.995Z,96859.94
2023-02-16T08:36:34.942Z,96855.66
2023-02-16T08:41:37.484Z,96865.53
2023-02-16T08:46:41.219Z,96860.50
2023-02-16T08:51:46.151Z,96861.19
2023-02-16T08:56:49.533Z,96866.47
2023-02-16T09:01:51.115Z,96879.97
2023-02-16T09:06:53.452Z,96864.78
2023-02-16T09:11:55.166Z,96872.88
2023-02-16T09:16:57.998Z,96867.16
2023-02-16T09:21:59.732Z,96874.34
2023-02-16T09:27:01.649Z,96883.06
2023-02-16T09:32:03.336Z,96886.28
2023-02-16T09:37:04.939Z,96888.53
2023-02-16T09:42:11.498Z,96887.00
2023-02-16T09:47:24.608Z,96888.63
2023-02-16T09:52:38.008Z,96882.78
2023-02-16T09:58:04.333Z,96893.16
2023-02-16T10:03:21.258Z,96887.13
2023-02-16T10:08:31.271Z,96890.81
2023-02-16T10:13:49.580Z,96885.72
2023-02-16T10:18:53.471Z,96897.63
2023-02-16T10:24:00.607Z,96896.34
2023-02-16T10:29:14.063Z,96893.88
2023-02-16T10:34:37.762Z,96884.72
2023-02-16T10:39:51.971Z,96883.63
2023-02-16T10:45:15.532Z,96879.66
2023-02-16T10:50:35.904Z,96872.72
2023-02-16T10:55:38.711Z,96871.31
2023-02-16T11:00:51.818Z,96847.31
2023-02-16T11:05:53.597Z,96845.13
2023-02-16T11:10:55.521Z,96844.81
2023-02-16T11:16:01.138Z,96837.97
2023-02-16T11:21:04.227Z,96822.38
2023-02-16T11:26:12.016Z,96834.78
2023-02-16T11:31:18.766Z,96838.44
2023-02-16T11:36:37.601Z,96819.97
2023-02-16T11:41:48.666Z,96814.03
2023-02-16T11:46:50.332Z,96810.97
2023-02-16T11:51:51.913Z,96802.50
2023-02-16T11:57:05.315Z,96797.84
2023-02-16T12:02:44.515Z,96792.56
2023-02-16T12:08:03.651Z,96792.38
2023-02-16T12:13:32.916Z,96781.84
2023-02-16T12:18:53.330Z,96776.72
2023-02-16T12:24:17.916Z,96777.81
2023-02-16T12:29:57.573Z,96778.09
2023-02-16T12:35:37.728Z,96775.44
2023-02-16T12:41:12.836Z,96766.16
2023-02-16T12:46:29.635Z,96762.94
2023-02-16T12:51:39.094Z,96758.75
2023-02-16T12:56:50.223Z,96741.06
2023-02-16T13:01:56.092Z,96746.28
2023-02-16T13:07:06.168Z,96735.56
2023-02-16T13:12:39.313Z,96735.81
2023-02-16T13:17:47.333Z,96735.75
2023-02-16T13:23:03.605Z,96723.09
2023-02-16T13:28:44.434Z,96721.66
2023-02-16T13:34:20.830Z,96722.91
2023-02-16T13:39:47.519Z,96712.88
2023-02-16T13:44:55.902Z,96708.25
2023-02-16T13:50:01.417Z,96709.34
2023-02-16T13:55:08.277Z,96706.63
2023-02-16T14:00:34.600Z,96708.56
2023-02-16T14:05:44.958Z,96705.31
2023-02-16T14:10:53.142Z,96699.78
2023-02-16T14:15:56.304Z,96702.28
2023-02-16T14:21:15.465Z,96699.16
2023-02-16T14:26:17.751Z,96702.22
2023-02-16T14:31:22.865Z,96705.75
2023-02-16T14:36:26.960Z,96706.56
2023-02-16T14:41:36.857Z,96708.22
2023-02-16T14:47:03.365Z,96706.19
2023-02-16T14:52:29.557Z,96708.69
2023-02-16T14:57:31.325Z,96710.72
2023-02-16T15:02:36.355Z,96711.94
2023-02-16T15:07:38.876Z,96712.75
2023-02-16T15:12:41.191Z,96710.84
2023-02-16T15:17:48.094Z,96706.53
2023-02-16T15:22:52.515Z,96701.66
2023-02-16T15:28:04.397Z,96712.72
2023-02-16T15:33:14.082Z,96694.19
2023-02-16T15:38:26.555Z,96701.53
2023-02-16T15:43:35.834Z,96693.03
2023-02-16T15:48:38.366Z,96691.00
2023-02-16T15:53:50.007Z,96697.47
2023-02-16T15:58:52.952Z,96692.63
2023-02-16T16:03:54.784Z,96697.03
2023-02-16T16:08:56.789Z,96686.66
2023-02-16T16:13:58.409Z,96695.25
2023-02-16T16:19:08.113Z,96701.34
2023-02-16T16:24:10.733Z,96697.94
2023-02-16T16:29:34.461Z,96701.41
2023-02-16T16:34:39.029Z,96691.78
2023-02-16T16:39:41.543Z,96694.16
2023-02-16T16:44:55.353Z,96696.19
2023-02-16T16:50:10.561Z,96705.19
2023-02-16T16:55:27.198Z,96711.00
2023-02-16T17:00:34.474Z,96706.47
2023-02-16T17:05:38.241Z,96708.94
2023-02-16T17:10:41.258Z,96705.31
2023-02-16T17:16:09.441Z,96710.94
2023-02-16T17:21:13.368Z,96708.75
2023-02-16T17:26:15.055Z,96707.03
2023-02-16T17:31:16.721Z,96700.72
2023-02-16T17:36:20.452Z,96702.50
2023-02-16T17:41:27.754Z,96694.22
2023-02-16T17:46:30.662Z,96691.28
2023-02-16T17:51:36.194Z,96693.03
2023-02-16T17:56:41.731Z,96694.38
2023-02-16T18:01:44.588Z,96690.75
2023-02-16T18:06:46.178Z,96689.47
2023-02-16T18:11:47.809Z,96686.28
2023-02-16T18:16:52.916Z,96688.06
2023-02-16T18:21:54.883Z,96686.34
2023-02-16T18:26:56.510Z,96696.69
2023-02-16T18:31:58.120Z,96681.13
2023-02-16T18:36:59.792Z,96687.53
2023-02-16T18:42:01.455Z,96686.94
2023-02-16T18:47:03.332Z,96680.56
2023-02-16T18:52:04.847Z,96691.28
2023-02-16T18:57:07.060Z,96693.97
2023-02-16T19:02:08.670Z,96691.28
2023-02-16T19:07:10.781Z,96700.50
2023-02-16T19:12:12.693Z,96698.91
2023-02-16T19:17:14.395Z,96693.81
2023-02-16T19:22:15.968Z,96693.81
2023-02-16T19:27:18.175Z,96692.25
2023-02-16T19:32:20.467Z,96686.38
2023-02-16T19:37:22.140Z,96682.88
2023-02-16T19:42:23.936Z,96682.09
2023-02-16T19:47:25.526Z,96690.50
2023-02-16T19:52:27.119Z,96694.34
2023-02-16T19:57:28.707Z,96690.84
2023-02-16T20:02:31.964Z,96684.16
2023-02-16T20:07:34.727Z,96684.81
2023-02-16T20:12:36.564Z,96690.09
2023-02-16T20:17:38.162Z,96695.81
2023-02-16T20:22:39.734Z,96691.06
2023-02-16T20:27:41.814Z,96693.00
2023-02-16T20:32:43.446Z,96681.38
2023-02-16T20:37:45.016Z,96685.34
2023-02-16T20:42:46.540Z,96675.16
2023-02-16T20:47:48.691Z,96674.38
2023-02-16T20:52:50.236Z,96666.25
2023-02-16T20:57:51.791Z,96668.66
2023-02-16T21:02:54.204Z,96658.94
2023-02-16T21:07:55.839Z,96663.91
2023-02-16T21:12:57.425Z,96659.94
2023-02-16T21:17:59.145Z,96659.13
2023-02-16T21:23:03.424Z,96665.66
2023-02-16T21:28:05.017Z,96650.56
2023-02-16T21:33:06.597Z,96640.53
2023-02-16T21:38:08.155Z,96644.34
2023-02-16T21:43:10.353Z,96635.44
2023-02-16T21:48:30.514Z,96633.09
2023-02-16T21:53:32.062Z,96638.81
2023-02-16T21:58:33.781Z,96631.50
2023-02-16T22:03:35.821Z,96633.88
2023-02-16T22:08:38.100Z,96643.56
2023-02-16T22:13:40.118Z,96640.06
2023-02-16T22:18:42.153Z,96628.94
2023-02-16T22:23:43.681Z,96637.38
2023-02-16T22:28:45.159Z,96637.38
2023-02-16T22:33:47.444Z,96630.50
2023-02-16T22:38:48.996Z,96631.66
2023-02-16T22:43:55.217Z,96631.66
2023-02-16T22:48:58.498Z,96617.03
2023-02-16T22:54:01.699Z,96616.91
2023-02-16T22:59:03.374Z,96621.53
2023-02-16T23:04:05.054Z,96617.69
2023-02-16T23:09:22.891Z,96617.38
2023-02-16T23:14:24.426Z,96620.88
2023-02-16T23:19:26.610Z,96621.00
2023-02-16T23:24:28.325Z,96604.44
2023-02-16T23:29:30.125Z,96609.19
2023-02-16T23:34:31.834Z,96611.13
2023-02-16T23:39:33.366Z,96610.81
2023-02-16T23:44:34.886Z,96602.81
2023-02-16T23:49:36.428Z,96599.78
2023-02-16T23:54:38.020Z,96600.59
2023-02-16T23:59:39.889Z,96595.97
